Flight Track Log - Related Links

Times and Time Zones

All times are in EDT time to prevent confusion due to time zone crossing. See the CTL13 flight status page for this flight to view local times or setup timezone preferences in your user account.

Time Position Orientation Groundspeed Altitude Reporting Facility
EDT Latitude Longitude Course Direction KTS MPH feet Rate Location/Type
Wed 06:51:25 PM 41.5358 -81.6789 349° North 122 140 1,200  Level Cleveland Center
Wed 06:51:43 PM 41.5461 -81.6817 349° North 124 143 1,500 759 Climbing Cleveland Center
Wed 06:52:44 PM 41.5814 -81.6964 343° North 144 166 2,200 689 Climbing Cleveland Center
Wed 06:53:45 PM 41.6039 -81.7383 306° West 158 182 2,900 744 Climbing Cleveland Center
Wed 06:54:45 PM 41.6181 -81.7914 290° West 151 174 3,700 730 Climbing Cleveland Center
Wed 06:55:40 PM 41.6217 -81.8442 275° West 161 185 4,300 626 Climbing Cleveland Center
Wed 06:56:40 PM 41.6231 -81.9053 272° West 159 183 4,900 522 Climbing Cleveland Center
Wed 06:57:35 PM 41.6119 -81.9550 253° West 174 200 5,300 466 Climbing Cleveland Center
Wed 06:58:36 PM 41.5861 -82.0128 239° Southwest 174 200 5,800 331 Climbing Cleveland Center
Wed 06:59:42 PM 41.5603 -82.0761 241° Southwest 184 212 6,000 94 Climbing Cleveland Center
Wed 07:00:43 PM 41.5344 -82.1422 242° Southwest 191 220 6,000  Level Cleveland Center
Wed 07:01:44 PM 41.5108 -82.2025 242° Southwest 187 215 6,000  Level Cleveland Center
Wed 07:02:45 PM 41.4850 -82.2572 238° Southwest 182 209 6,000  Level Cleveland Center
Wed 07:03:46 PM 41.4569 -82.3231 240° Southwest 184 212 6,000  Level Cleveland Center
Wed 07:04:52 PM 41.4289 -82.3861 239° Southwest 184 212 6,000  Level Cleveland Center
Wed 07:05:53 PM 41.4069 -82.4436 243° Southwest 184 212 6,000  Level Cleveland Center
Wed 07:07:00 PM 41.3757 -82.4979 232° Southwest  Level FlightAware
Wed 07:14:00 PM 41.1995 -82.8563 239° Southwest  Level FlightAware
Wed 07:15:00 PM 41.1755 -82.9084 239° Southwest  Level FlightAware
Wed 07:16:00 PM 41.1515 -82.9605 239° Southwest  Level FlightAware
Wed 07:17:00 PM 41.1277 -83.0127 240° Southwest  Level FlightAware
Wed 07:18:00 PM 41.1045 -83.0653 240° Southwest  Level FlightAware
Wed 07:19:00 PM 41.0812 -83.1179 240° Southwest  Level FlightAware
Wed 07:20:00 PM 41.0579 -83.1705 240° Southwest  Level FlightAware
Wed 07:20:32 PM 41.0358 -83.2797 239° Southwest 180 207 6,000  Level Indianapolis Center
Wed 07:21:00 PM 41.0346 -83.2230 240° Southwest  Level FlightAware
Wed 07:21:34 PM 41.0094 -83.3367 238° Southwest 181 208 6,000  Level Indianapolis Center
Wed 07:22:00 PM 41.0113 -83.2755 239° Southwest  Level FlightAware
Wed 07:22:36 PM 40.9808 -83.3911 235° Southwest 180 207 6,000  Level Indianapolis Center
Wed 07:23:00 PM 40.9879 -83.3279 239° Southwest  Level FlightAware
Wed 07:23:38 PM 40.9497 -83.4564 238° Southwest 178 205 6,000  Level Indianapolis Center
Wed 07:24:00 PM 40.9645 -83.3803 239° Southwest  Level FlightAware
Wed 07:24:40 PM 40.9217 -83.5122 236° Southwest 177 204 6,000  Level Indianapolis Center
Wed 07:25:00 PM 40.9411 -83.4327 239° Southwest  Level FlightAware
Wed 07:25:42 PM 40.8939 -83.5672 236° Southwest 178 205 6,000  Level Indianapolis Center
Wed 07:26:43 PM 40.8658 -83.6194 235° Southwest 175 201 6,000  Level Indianapolis Center
Wed 07:27:45 PM 40.8394 -83.6742 237° Southwest 175 201 6,000  Level Indianapolis Center
Wed 07:28:47 PM 40.8136 -83.7297 238° Southwest 176 203 6,000  Level Indianapolis Center
Wed 07:29:49 PM 40.7867 -83.7844 237° Southwest 175 201 6,000  Level Indianapolis Center
Wed 07:30:51 PM 40.7597 -83.8419 238° Southwest 180 207 6,000  Level Indianapolis Center
Wed 07:31:52 PM 40.7353 -83.9003 241° Southwest 182 209 6,000  Level Indianapolis Center
Wed 07:32:54 PM 40.7069 -83.9678 241° Southwest 181 208 6,000 -48 Level Indianapolis Center
Wed 07:33:56 PM 40.6783 -84.0233 236° Southwest 181 208 5,900  Descending Indianapolis Center
Wed 07:34:58 PM 40.6494 -84.0794 236° Southwest 182 209 6,000 54 Climbing Indianapolis Center
Wed 07:35:47 PM 40.6244 -84.1250 234° Southwest 182 209 6,000 55 Level Indianapolis Center
Wed 07:36:48 PM 40.5953 -84.1789 235° Southwest 183 211 6,100 49 Climbing Indianapolis Center
Wed 07:37:49 PM 40.5661 -84.2297 233° Southwest 175 201 6,100 -79 Level Indianapolis Center
Wed 07:38:04 PM 40.5628 -84.2403 247° West 179 206 6,000  Descending Indianapolis Center
Wed 07:38:55 PM 40.5339 -84.2942 235° Southwest 177 204 6,100  Climbing Indianapolis Center
Wed 07:39:56 PM 40.5067 -84.3453 235° Southwest 175 201 6,000 -49 Descending Indianapolis Center
Wed 07:40:57 PM 40.4814 -84.3997 239° Southwest 176 203 6,000  Level Indianapolis Center
Wed 07:41:58 PM 40.4542 -84.4508 235° Southwest 171 197 6,000 -44 Level Indianapolis Center
Wed 07:43:12 PM 40.4222 -84.5158 237° Southwest 172 198 5,900 49 Descending Indianapolis Center
Wed 07:44:00 PM 40.3994 -84.5583 235° Southwest 172 198 6,100 56 Climbing Indianapolis Center
Wed 07:45:00 PM 40.3719 -84.6122 236° Southwest 175 201 6,000 -158 Descending Indianapolis Center
Wed 07:45:16 PM 40.3672 -84.6217 237° Southwest 175 201 5,900  Descending Indianapolis Center
Wed 07:46:01 PM 40.3467 -84.6661 239° Southwest 176 203 6,000  Climbing Indianapolis Center
Wed 07:46:17 PM 40.3425 -84.6767 243° Southwest 176 203 5,900  Descending Indianapolis Center
Wed 07:47:02 PM 40.3272 -84.7236 247° West 174 200 6,000 97 Climbing Indianapolis Center
Wed 07:47:19 PM 40.3239 -84.7350 249° West 174 200 6,000  Level Indianapolis Center
Wed 07:48:03 PM 40.3075 -84.7839 246° West 169 194 6,000 -97 Level Indianapolis Center
Wed 07:48:21 PM 40.3075 -84.7931 270° West 171 197 5,900 98 Descending Indianapolis Center
Wed 07:49:04 PM 40.2919 -84.8447 248° West 170 196 6,100 97 Climbing Indianapolis Center
Wed 07:49:23 PM 40.2886 -84.8633 257° West 173 199 6,000  Descending Indianapolis Center
Wed 07:50:05 PM 40.2806 -84.9058 256° West 176 203 6,100  Climbing Indianapolis Center
Wed 07:50:24 PM 40.2781 -84.9189 256° West 176 203 6,000  Descending Indianapolis Center
Wed 07:51:06 PM 40.2650 -84.9639 249° West 174 200 6,100  Climbing Indianapolis Center
Wed 07:51:26 PM 40.2636 -84.9775 262° West 173 199 6,000 -90 Descending Indianapolis Center
Wed 07:52:13 PM 40.2528 -85.0333 256° West 168 193 6,000 59 Level Indianapolis Center
Wed 07:53:07 PM 40.2400 -85.0861 252° West 167 192 6,100  Climbing Indianapolis Center
Wed 07:53:29 PM 40.2358 -85.1056 254° West 166 191 6,000  Descending Indianapolis Center
Wed 07:54:08 PM 40.2264 -85.1444 252° West 166 191 6,100  Climbing Indianapolis Center
Wed 07:54:31 PM 40.2236 -85.1622 258° West 165 190 6,000 -71 Descending Indianapolis Center
Wed 07:55:32 PM 40.2114 -85.2189 254° West 162 186 6,000 -341 Level Indianapolis Center
Wed 07:56:34 PM 40.1978 -85.2783 253° West 168 193 5,300 -780 Descending Indianapolis Center
Wed 07:57:35 PM 40.1778 -85.3431 248° West 185 213 4,400 -634 Descending Indianapolis Center
Wed 07:58:37 PM 40.1578 -85.4064 248° West 188 216 4,000 -194 Descending Indianapolis Center
Wed 07:59:39 PM 40.1381 -85.4661 247° West 186 214 4,000  Level Indianapolis Center
Wed 08:00:40 PM 40.1147 -85.5347 246° West 178 205 4,000  Level Indianapolis Center
Wed 08:01:42 PM 40.0944 -85.5894 244° Southwest 173 199 4,000  Level Indianapolis Center
Wed 08:02:43 PM 40.0819 -85.6475 254° West 169 194 4,000 -49 Level Indianapolis Center
Wed 08:03:45 PM 40.0825 -85.7103 271° West 171 197 3,900  Descending Indianapolis Center
Wed 08:04:46 PM 40.0783 -85.7689 265° West 168 193 4,000 49 Climbing Indianapolis Center
Wed 08:05:48 PM 40.0731 -85.8264 263° West 164 189 4,000  Level Indianapolis Center
Wed 08:06:50 PM 40.0683 -85.8847 264° West 163 188 4,000 -49 Level Indianapolis Center
Wed 08:07:51 PM 40.0631 -85.9519 264° West 159 183 3,900 -293 Descending Indianapolis Center
Wed 08:08:53 PM 40.0578 -86.0125 264° West 163 188 3,400 -439 Descending Indianapolis Center
Wed 08:09:54 PM 40.0536 -86.0744 265° West 168 193 3,000 -244 Descending Indianapolis Center
Wed 08:10:56 PM 40.0311 -86.1206 238° Southwest 167 192 2,900 -242 Descending Indianapolis Center
Wed 08:11:58 PM 40.0003 -86.1653 228° Southwest 166 191 2,500 -293 Descending Indianapolis Center
Wed 08:12:59 PM 39.9722 -86.2097 231° Southwest 164 189 2,300 -244 Descending Indianapolis Center
Wed 08:14:01 PM 39.9247 -86.2358 203° Southwest 156 180 2,000 -244 Descending Indianapolis Center
Wed 08:15:02 PM 39.8867 -86.2589 205° Southwest 154 177 1,800 -390 Descending Indianapolis Center
Wed 08:16:04 PM 39.8525 -86.2803 206° Southwest 147 169 1,200 -439 Descending Indianapolis Center
Wed 08:17:05 PM 39.8222 -86.2986 205° Southwest 142 163 900 -295 Descending Indianapolis Center

Login

Don't have an account? Register now (free) for customized features, flight alerts, and more!